Latest Weather Observations for Perth

IDW60901

Issued at 3:41 pm WST Tuesday 17 October 2017 (issued every 10 minutes, with the page automatically refreshed every 10 minutes)

About weather observations | Map of Perth area stations | Latest observations for Perth area | Other Formats
Station Details ID: 009225 Name: PERTH METRO Lat: -31.92 Lon: 115.87 Height: 24.9 m
Data from the previous 72 hours. | See also: Recent months at Perth
Date/Time
WST
Temp
°C
App
Temp
°C
Dew
Point
°C
Rel
Hum
%
Delta-T
°C
Wind Press
QNH
hPa
Press
MSL
hPa
Rain since
9am
mm
Dir  Spd
km/h
Gust
km/h
Spd
kts
Gust
kts
17/03:30pm 18.7 15.2 10.3 58 4.5 NW 19 33 10 18 1009.7 1009.7 0.2
17/03:00pm 19.1 15.9 10.1 56 4.8 NW 17 32 9 17 1009.6 1009.6 0.2
17/02:30pm 18.5 15.4 9.0 54 5.0 NW 15 24 8 13 1009.7 1009.7 0.2
17/02:00pm 15.7 13.6 12.3 80 1.9 WNW 15 30 8 16 1010.1 1010.1 0.2
17/01:30pm 18.1 14.7 11.4 65 3.7 W 20 35 11 19 1010.3 1010.3 0.0
17/01:00pm 18.8 14.9 8.7 52 5.3 NNW 19 41 10 22 1010.3 1010.3 0.0
17/12:30pm 19.5 15.9 9.7 53 5.2 WNW 19 39 10 21 1010.3 1010.3 0.0
17/12:00pm 18.8 14.9 8.7 52 5.3 WNW 19 35 10 19 1010.5 1010.5 0.0
17/11:30am 18.8 14.7 7.9 49 5.6 WNW 19 32 10 17 1010.4 1010.4 0.0
17/11:00am 17.9 14.1 9.0 56 4.6 WNW 19 32 10 17 1010.7 1010.7 0.0
17/10:30am 18.0 15.0 9.1 56 4.6 WNW 15 30 8 16 1010.7 1010.7 0.0
17/10:00am 18.1 15.2 9.5 57 4.5 W 15 30 8 16 1010.4 1010.4 0.0
17/09:30am 17.0 14.5 11.1 68 3.2 W 15 30 8 16 1010.2 1010.2 0.0
17/09:00am 17.3 15.5 12.0 71 2.9 W 13 24 7 13 1010.1 1010.1 10.6
17/08:30am 16.2 14.7 13.1 82 1.7 W 13 24 7 13 1010.0 1010.0 10.6
17/08:00am 14.2 11.7 12.4 89 1.0 WNW 17 30 9 16 1009.9 1009.9 10.6
17/07:30am 14.7 14.5 13.7 94 0.6 W 7 13 4 7 1009.5 1009.5 10.2
17/07:00am 13.9 11.9 12.6 92 0.7 W 15 26 8 14 1009.3 1009.3 10.0
17/06:30am 14.3 13.6 13.3 94 0.6 WSW 9 17 5 9 1008.7 1008.7 8.8
17/06:00am 14.2 13.8 13.1 93 0.6 WSW 7 17 4 9 1008.3 1008.3 7.6
17/05:30am 14.3 14.0 13.2 93 0.6 W 7 17 4 9 1008.0 1008.0 7.4
17/05:00am 14.4 14.2 13.0 91 0.8 WSW 6 9 3 5 1007.8 1007.8 6.8
17/04:30am 14.6 13.3 12.5 87 1.1 W 11 17 6 9 1007.4 1007.4 6.6
17/04:00am 15.4 13.6 12.0 80 1.9 WSW 13 19 7 10 1007.3 1007.3 6.4
17/03:30am 15.8 13.6 10.8 72 2.7 WSW 13 19 7 10 1007.0 1007.0 6.4
17/03:00am 15.5 13.9 11.7 78 2.1 W 11 22 6 12 1007.0 1007.0 6.4
17/02:30am 15.5 14.8 13.2 86 1.3 WSW 9 20 5 11 1006.7 1006.7 6.4
17/02:00am 14.8 14.0 13.0 89 1.0 W 9 15 5 8 1006.6 1006.6 6.4
17/01:30am 15.5 14.1 12.1 80 1.9 W 11 20 6 11 1006.6 1006.6 6.2
17/01:00am 15.9 14.4 11.9 77 2.2 W 11 24 6 13 1006.9 1006.9 6.0
17/12:30am 15.4 14.0 12.2 81 1.7 WNW 11 24 6 13 1007.0 1007.0 6.0
17/12:00am 15.2 13.9 13.6 90 0.9 WNW 13 30 7 16 1006.9 1006.9 6.0
 
Date/Time
WST
Temp
°C
App
Temp
°C
Dew
Point
°C
Rel
Hum
%
Delta-T
°C
Wind Press
QNH
hPa
Press
MSL
hPa
Rain since
9am
mm
Dir  Spd
km/h
Gust
km/h
Spd
kts
Gust
kts
16/11:30pm 15.7 13.9 13.2 85 1.4 W 15 28 8 15 1006.8 1006.8 5.6
16/11:00pm 15.1 12.4 13.0 87 1.2 WNW 19 37 10 20 1006.5 1006.5 5.4
16/10:30pm 16.1 13.9 13.2 83 1.6 NW 17 35 9 19 1005.9 1005.9 5.0
16/10:00pm 15.5 13.5 13.9 90 0.9 NW 17 35 9 19 1005.8 1005.8 5.0
16/09:30pm 15.2 12.8 13.7 91 0.8 NW 19 44 10 24 1005.9 1005.9 5.0
16/09:00pm 16.4 13.0 12.4 77 2.2 NW 22 44 12 24 1005.5 1005.5 3.2
16/08:30pm 16.0 12.9 12.2 78 2.1 NW 20 37 11 20 1005.2 1005.2 2.8
16/08:00pm 17.0 12.2 10.4 65 3.5 NNW 26 52 14 28 1004.7 1004.7 2.6
16/07:58pm 17.1 11.9 10.2 64 3.7 NNW 28 52 15 28 1004.6 1004.6 2.6
16/07:30pm 16.4 12.8 10.5 68 3.1 NNW 20 46 11 25 1004.5 1004.5 2.6
16/07:22pm 16.5 11.3 10.4 67 3.2 NW 28 46 15 25 1004.5 1004.5 2.6
16/07:00pm 16.5 12.5 10.4 67 3.2 NW 22 44 12 24 1004.4 1004.4 2.4
16/06:30pm 16.8 12.3 10.2 65 3.5 NW 24 52 13 28 1003.9 1003.9 2.4
16/06:00pm 16.1 10.8 9.8 66 3.3 NW 28 54 15 29 1004.2 1004.2 2.4
16/05:48pm 16.3 11.1 10.2 67 3.2 NW 28 63 15 34 1004.1 1004.1 2.4
16/05:30pm 16.5 12.0 8.7 60 4.0 NW 22 48 12 26 1003.7 1003.7 2.4
16/05:00pm 17.2 12.2 9.4 60 4.1 NW 26 56 14 30 1003.6 1003.6 2.4
16/04:57pm 17.3 11.7 8.7 57 4.4 NW 28 56 15 30 1003.6 1003.6 2.4
16/04:30pm 16.2 12.5 10.1 67 3.2 NW 20 43 11 23 1003.6 1003.6 2.4
16/04:00pm 15.5 12.4 11.5 77 2.2 NW 19 39 10 21 1003.4 1003.4 1.6
16/03:30pm 18.7 13.1 8.9 53 5.1 NW 28 52 15 28 1003.1 1003.1 0.6
16/03:14pm 18.5 12.6 7.6 49 5.5 NW 28 59 15 32 1003.2 1003.2 0.6
16/03:00pm 18.0 14.7 11.6 66 3.5 NW 20 41 11 22 1003.2 1003.2 0.6
16/02:30pm 17.8 14.3 10.9 64 3.7 NW 20 43 11 23 1003.3 1003.3 0.6
16/02:00pm 18.8 14.0 9.0 53 5.2 NW 24 44 13 24 1003.2 1003.2 0.6
16/01:30pm 19.2 13.1 8.2 49 5.7 NW 30 61 16 33 1003.2 1003.2 0.6
16/01:21pm 19.4 14.4 8.1 48 5.8 NW 24 54 13 29 1003.2 1003.2 0.6
16/01:00pm 19.8 16.3 11.0 57 4.8 WNW 20 39 11 21 1003.3 1003.3 0.6
16/12:30pm 18.9 13.8 10.7 59 4.4 NW 28 52 15 28 1003.3 1003.3 0.6
16/12:00pm 18.9 13.6 9.9 56 4.8 NW 28 54 15 29 1003.2 1003.2 0.6
16/11:57am 18.7 13.2 9.2 54 5.0 NW 28 54 15 29 1003.2 1003.2 0.6
16/11:30am 19.2 13.9 8.5 50 5.6 NW 26 52 14 28 1003.2 1003.2 0.4
16/11:00am 18.8 12.5 7.6 48 5.7 NW 30 67 16 36 1003.0 1003.0 0.4
16/10:49am 18.6 13.1 9.1 54 5.0 NW 28 56 15 30 1002.9 1002.9 0.4
16/10:30am 17.6 14.0 10.7 64 3.7 NW 20 39 11 21 1003.1 1003.1 0.4
16/10:00am 18.2 14.7 11.0 63 3.9 NW 20 41 11 22 1002.8 1002.8 0.4
16/09:30am 15.5 13.5 13.9 90 0.9 NW 17 32 9 17 1002.5 1002.5 0.4
16/09:00am 15.9 14.2 14.8 93 0.6 NW 17 37 9 20 1002.1 1002.1 6.6
16/08:30am 15.7 13.7 14.9 95 0.5 WNW 19 37 10 20 1001.8 1001.8 5.4
16/08:00am 15.9 14.0 15.1 95 0.5 WNW 19 39 10 21 1001.4 1001.4 3.8
16/07:30am 16.6 15.1 15.3 92 0.8 NNW 17 33 9 18 1000.9 1000.9 0.8
16/07:00am 17.4 15.4 13.9 80 2.0 NNE 17 28 9 15 1000.7 1000.7 0.0
16/06:30am 16.3 14.9 13.4 83 1.6 N 13 24 7 13 1000.9 1000.9 0.0
16/06:00am 15.9 14.4 13.2 84 1.5 NNE 13 22 7 12 1000.8 1000.8 0.0
16/05:30am 15.7 14.2 13.0 84 1.5 NNE 13 24 7 13 1000.9 1000.9 0.0
16/05:00am 15.6 14.8 12.9 84 1.5 NNE 9 17 5 9 1001.6 1001.6 0.0
16/04:30am 15.7 14.9 13.0 84 1.5 NNE 9 13 5 7 1001.7 1001.7 0.0
16/04:00am 15.9 15.2 13.2 84 1.5 N 9 17 5 9 1001.9 1001.9 0.0
16/03:30am 16.0 15.0 13.3 84 1.5 N 11 17 6 9 1002.5 1002.5 0.0
16/03:00am 15.8 15.1 13.3 85 1.4 NNE 9 15 5 8 1002.2 1002.2 0.0
16/02:30am 15.9 15.6 13.4 85 1.4 N 7 13 4 7 1003.0 1003.0 0.0
16/02:00am 15.9 15.7 13.6 86 1.3 NNE 7 11 4 6 1003.0 1003.0 0.0
16/01:30am 16.0 15.5 13.7 86 1.3 N 9 13 5 7 1003.3 1003.3 0.0
16/01:00am 16.4 15.9 13.7 84 1.5 NNE 9 15 5 8 1003.9 1003.9 0.0
16/12:30am 16.8 16.9 13.9 83 1.6 NW 6 9 3 5 1004.9 1004.9 0.0
16/12:00am 16.8 17.3 13.9 83 1.7 NW 4 7 2 4 1005.3 1005.3 0.0
 
Date/Time
WST
Temp
°C
App
Temp
°C
Dew
Point
°C
Rel
Hum
%
Delta-T
°C
Wind Press
QNH
hPa
Press
MSL
hPa
Rain since
9am
mm
Dir  Spd
km/h
Gust
km/h
Spd
kts
Gust
kts
15/11:30pm 16.9 17.0 13.8 82 1.8 NW 6 7 3 4 1004.9 1004.9 0.0
15/11:00pm 17.4 17.2 13.7 79 2.1 NW 7 13 4 7 1005.8 1005.8 0.0
15/10:30pm 17.3 17.7 13.8 80 2.0 WNW 4 9 2 5 1006.0 1006.0 0.0
15/10:00pm 17.4 17.4 13.7 79 2.1 WNW 6 9 3 5 1005.8 1005.8 0.0
15/09:30pm 17.3 17.7 13.6 79 2.1 WSW 4 7 2 4 1006.2 1006.2 0.0
15/09:00pm 17.3 17.3 13.6 79 2.1 WSW 6 11 3 6 1006.7 1006.7 0.0
15/08:30pm 17.4 17.2 13.7 79 2.1 W 7 17 4 9 1006.3 1006.3 0.0
15/08:00pm 17.7 17.1 13.4 76 2.4 WSW 9 15 5 8 1006.4 1006.4 0.0
15/07:30pm 17.9 17.8 13.2 74 2.6 SW 6 11 3 6 1005.7 1005.7 0.0
15/07:00pm 18.3 18.2 13.2 72 2.9 SW 6 11 3 6 1005.9 1005.9 0.0
15/06:30pm 18.8 17.7 13.0 69 3.3 SW 11 17 6 9 1006.0 1006.0 0.0
15/06:00pm 19.4 19.0 12.9 66 3.7 SW 7 17 4 9 1005.9 1005.9 0.0
15/05:30pm 19.9 19.1 12.9 64 4.0 SW 9 17 5 9 1006.3 1006.3 0.0
15/05:00pm 20.5 18.8 12.5 60 4.5 SSW 13 26 7 14 1006.7 1006.7 0.0
15/04:30pm 21.6 19.9 12.5 56 5.2 SSW 13 19 7 10 1007.2 1007.2 0.0
15/04:00pm 21.9 20.3 12.7 56 5.3 SSW 13 22 7 12 1007.4 1007.4 0.0
15/03:30pm 21.6 19.9 12.5 56 5.2 SW 13 20 7 11 1007.8 1007.8 0.0
15/03:00pm 21.8 19.8 12.6 56 5.2 SW 15 24 8 13 1008.0 1008.0 0.0
15/02:30pm 22.6 21.1 13.1 55 5.5 WSW 13 22 7 12 1007.9 1007.9 0.0
15/02:00pm 23.1 21.3 12.1 50 6.2 WSW 13 20 7 11 1008.1 1008.1 0.0
15/01:30pm 23.5 22.0 13.1 52 6.0 WSW 13 20 7 11 1008.3 1008.3 0.0
15/01:00pm 23.1 21.0 11.2 47 6.7 W 13 17 7 9 1008.6 1008.6 0.0
15/12:30pm 22.6 20.8 10.7 47 6.6 WSW 11 17 6 9 1008.9 1008.9 0.0
15/12:00pm 24.1 22.9 12.7 49 6.6 WSW 11 17 6 9 1009.1 1009.1 0.0
15/11:30am 23.3 21.9 11.0 46 6.8 WSW 9 13 5 7 1009.3 1009.3 0.0
15/11:00am 22.7 21.5 11.7 49 6.2 WNW 9 15 5 8 1009.7 1009.7 0.0
15/10:30am 21.9 21.3 12.2 54 5.5 W 7 15 4 8 1010.0 1010.0 0.0
15/10:00am 21.2 20.3 12.6 58 4.9 W 9 13 5 7 1010.2 1010.2 0.0
15/09:30am 22.1 21.7 12.9 56 5.3 WNW 7 15 4 8 1010.2 1010.2 0.0
15/09:00am 20.8 20.5 12.8 60 4.5 WNW 6 13 3 7 1010.2 1010.2 0.0
15/08:30am 19.9 19.7 13.1 65 3.9 WNW 6 11 3 6 1010.3 1010.3 0.0
15/08:00am 18.9 17.8 13.1 69 3.3 WNW 11 15 6 8 1010.5 1010.5 0.0
15/07:30am 18.8 19.5 13.4 71 3.1 WNW 2 7 1 4 1010.6 1010.6 0.0
15/07:00am 17.3 17.7 12.6 74 2.6 W 2 6 1 3 1010.7 1010.7 0.0
15/06:30am 16.1 16.9 12.7 80 1.9 CALM 0 0 0 0 1010.7 1010.7 0.0
15/06:00am 16.4 17.2 12.4 77 2.2 CALM 0 6 0 3 1010.8 1010.8 0.0
15/05:30am 17.0 16.8 13.1 78 2.2 WNW 6 9 3 5 1010.9 1010.9 0.0
15/05:00am 16.9 17.6 13.4 80 2.0 W 2 6 1 3 1010.4 1010.4 0.0
15/04:30am 16.8 17.3 13.9 83 1.6 W 4 9 2 5 1010.4 1010.4 0.0
15/04:00am 16.6 17.8 13.9 84 1.5 CALM 0 0 0 0 1010.2 1010.2 0.0
15/03:30am 17.1 18.0 14.0 82 1.8 W 2 7 1 4 1010.4 1010.4 0.0
15/03:00am 17.5 18.2 14.4 82 1.8 W 4 7 2 4 1010.4 1010.4 0.0
15/02:30am 17.5 18.6 14.6 83 1.7 W 2 6 1 3 1010.3 1010.3 0.0
15/02:00am 17.5 18.2 14.4 82 1.8 W 4 6 2 3 1010.4 1010.4 0.0
15/01:30am 17.7 18.4 14.4 81 1.9 W 4 7 2 4 1010.6 1010.6 0.0
15/01:00am 17.8 18.6 14.9 83 1.7 W 4 7 2 4 1010.8 1010.8 0.0
15/12:30am 17.8 18.3 14.9 83 1.7 W 6 9 3 5 1011.3 1011.3 0.0
15/12:00am 17.8 18.3 15.1 84 1.6 WSW 6 11 3 6 1011.6 1011.6 0.0
 
Date/Time
WST
Temp
°C
App
Temp
°C
Dew
Point
°C
Rel
Hum
%
Delta-T
°C
Wind Press
QNH
hPa
Press
MSL
hPa
Rain since
9am
mm
Dir  Spd
km/h
Gust
km/h
Spd
kts
Gust
kts
14/11:30pm 17.9 18.5 15.3 85 1.5 WSW 6 11 3 6 1011.7 1011.7 0.0
14/11:00pm 17.8 18.2 15.4 86 1.4 WSW 7 11 4 6 1011.9 1011.9 0.0
14/10:30pm 17.7 18.3 15.9 89 1.1 WSW 7 13 4 7 1012.4 1012.3 0.0
14/10:00pm 17.4 17.9 15.6 89 1.1 WSW 7 11 4 6 1012.6 1012.5 0.0
14/09:30pm 17.6 18.3 15.6 88 1.2 SW 6 9 3 5 1012.6 1012.5 0.0
14/09:00pm 17.6 19.0 15.4 87 1.3 SW 2 7 1 4 1012.3 1012.2 0.0
14/08:30pm 18.1 19.2 15.5 85 1.5 SW 4 9 2 5 1012.3 1012.2 0.0
14/08:00pm 18.4 19.0 15.8 85 1.5 SW 7 11 4 6 1012.4 1012.3 0.0
14/07:30pm 18.8 19.4 15.9 83 1.7 SW 7 11 4 6 1012.1 1012.1 0.0
14/07:00pm 18.9 19.5 15.8 82 1.8 SSW 7 11 4 6 1011.7 1011.7 0.0
14/06:30pm 19.4 19.7 16.1 81 2.0 S 9 13 5 7 1011.7 1011.7 0.0
14/06:00pm 19.8 19.7 15.9 78 2.3 SSW 11 19 6 10 1011.6 1011.6 0.0
14/05:30pm 20.6 20.5 16.0 75 2.8 WSW 11 20 6 11 1011.1 1011.1 0.0
14/05:00pm 21.7 21.3 16.2 71 3.3 SW 13 20 7 11 1011.1 1011.1 0.0
14/04:30pm 22.5 21.8 16.5 69 3.7 WSW 15 22 8 12 1010.8 1010.8 0.0
14/04:00pm 23.3 22.6 16.4 65 4.2 W 15 28 8 15 1010.5 1010.5 0.0

Latest Capital City Observations: Canberra | Sydney | Melbourne | Brisbane | Adelaide | Perth | Hobart | Darwin

Other Formats:

Comma delimited format used in spreadsheet applications
http://www.bom.gov.au/fwo/IDW60901/IDW60901.94608.axf

JavaScript Object Notation format (JSON) in row-major order
http://www.bom.gov.au/fwo/IDW60901/IDW60901.94608.json